Time;durP1;ratioP1;P1;durP2;ratioP2;P2;SDS_P1;SDS_P2;PMS_P1;PMS_P2;Temp;Humidity;BMP_temperature;BMP_pressure;BME280_temperature;BME280_humidity;BME280_pressure;Samples;Min_cycle;Max_cycle;Signal;HPM_P1;HPM_P2
2022/01/09 00:00:30;;;;;;;;;0.00;0.00;;;;;6.99;96.95;99307.47;5076555;28;45561;-78
2022/01/09 00:02:57;;;;;;;;;0.25;0.00;;;;;7.04;97.16;99307.94;5076331;28;45825;-78
2022/01/09 00:05:25;;;;;;;;;1.00;1.00;;;;;7.00;97.21;99350.78;5076382;28;49172;-78
2022/01/09 00:07:51;;;;;;;;;1.00;0.00;;;;;6.98;97.17;99339.66;5076112;28;46385;-77
2022/01/09 00:10:18;;;;;;;;;1.25;0.00;;;;;7.03;96.79;99342.72;5057949;28;45710;-77
2022/01/09 00:12:43;;;;;;;;;1.50;0.25;;;;;7.05;96.89;99351.25;5076199;28;45600;-77
2022/01/09 00:18:31;;;;;;;;;1.75;0.25;;;;;7.06;97.07;99373.75;5076325;28;45946;-77
2022/01/09 00:20:56;;;;;;;;;2.50;0.25;;;;;7.06;97.07;99352.09;5077149;28;45518;-79
2022/01/09 00:23:22;;;;;;;;;2.00;0.25;;;;;7.02;97.14;99348.88;5078840;28;45517;-80
2022/01/09 00:25:47;;;;;;;;;2.00;1.00;;;;;7.00;97.11;99353.38;5077074;28;46443;-77
2022/01/09 00:28:13;;;;;;;;;3.75;1.00;;;;;7.06;97.02;99371.16;5076536;28;45557;-78
2022/01/09 00:34:00;;;;;;;;;0.50;0.25;;;;;7.05;97.04;99379.06;5076606;28;45669;-80
2022/01/09 00:36:26;;;;;;;;;2.75;1.00;;;;;6.95;97.13;99365.94;5077136;28;45415;-81
2022/01/09 00:38:52;;;;;;;;;0.00;0.00;;;;;7.04;96.99;99393.88;5077347;28;45613;-77
2022/01/09 00:41:17;;;;;;;;;3.50;1.00;;;;;7.03;97.02;99397.41;5077108;28;45651;-81
2022/01/09 00:43:43;;;;;;;;;3.00;0.00;;;;;7.02;96.97;99400.13;5076970;28;45594;-78
2022/01/09 00:46:09;;;;;;;;;0.00;0.00;;;;;6.89;96.99;99389.81;5075942;28;47479;-78
2022/01/09 00:48:35;;;;;;;;;0.00;0.00;;;;;6.97;96.88;99408.28;5075698;28;45923;-78
2022/01/09 00:51:01;;;;;;;;;0.75;0.00;;;;;6.88;97.08;99406.38;5075869;28;45672;-79
2022/01/09 00:53:26;;;;;;;;;5.00;1.00;;;;;6.86;96.90;99404.81;5075731;28;45581;-81
2022/01/09 00:55:51;;;;;;;;;1.00;0.00;;;;;6.78;96.72;99392.41;5075944;28;46478;-78
2022/01/09 00:58:17;;;;;;;;;0.00;0.00;;;;;6.98;96.95;99435.16;5076432;28;46015;-77
2022/01/09 01:04:04;;;;;;;;;1.75;0.00;;;;;6.90;96.82;99450.53;5075723;28;45629;-82
2022/01/09 01:06:30;;;;;;;;;2.00;1.00;;;;;6.98;96.90;99500.25;5076480;28;45625;-84
2022/01/09 01:08:56;;;;;;;;;1.00;1.00;;;;;6.88;97.05;99460.22;5076525;28;46287;-82
2022/01/09 01:11:22;;;;;;;;;0.50;0.00;;;;;6.84;96.94;99458.78;5078559;28;45727;-80
2022/01/09 01:13:59;;;;;;;;;1.00;1.00;;;;;6.98;96.74;99490.66;5077643;28;45785;-78
2022/01/09 01:16:30;;;;;;;;;1.00;0.00;;;;;6.93;96.71;99490.16;5078044;28;46007;-82
2022/01/09 01:18:56;;;;;;;;;5.50;0.75;;;;;6.80;96.76;99471.22;5077308;28;46174;-80
2022/01/09 01:21:24;;;;;;;;;1.25;0.00;;;;;6.95;96.77;99524.75;5077654;28;45730;-80
2022/01/09 01:23:51;;;;;;;;;1.00;0.00;;;;;6.79;96.65;99507.75;5079282;28;45640;-78
2022/01/09 01:26:16;;;;;;;;;0.25;0.00;;;;;6.81;96.73;99490.22;5077446;28;46534;-80
2022/01/09 01:28:45;;;;;;;;;0.00;0.00;;;;;6.76;96.83;99521.81;5077108;28;45507;-79
2022/01/09 01:34:35;;;;;;;;;1.00;0.00;;;;;6.83;96.92;99533.44;5076486;28;45708;-78
2022/01/09 01:37:00;;;;;;;;;0.25;0.00;;;;;6.80;96.86;99538.88;5076777;28;45727;-82
2022/01/09 01:39:26;;;;;;;;;0.00;0.00;;;;;6.78;96.60;99551.16;5076187;28;46139;-79
2022/01/09 01:41:51;;;;;;;;;0.25;0.00;;;;;6.72;96.65;99562.03;5075696;28;45835;-80
2022/01/09 01:44:17;;;;;;;;;0.00;0.00;;;;;6.78;96.55;99577.19;5075661;28;45599;-78
2022/01/09 01:46:43;;;;;;;;;1.00;0.00;;;;;6.78;96.51;99556.38;5075390;28;46525;-78
2022/01/09 01:49:12;;;;;;;;;0.00;0.00;;;;;6.78;96.65;99568.56;5075802;28;45754;-79
2022/01/09 01:51:41;;;;;;;;;0.25;0.00;;;;;6.69;96.82;99580.47;5075133;28;45836;-82
2022/01/09 01:54:09;;;;;;;;;4.75;0.25;;;;;6.80;96.77;99577.94;5058341;28;45906;-80
2022/01/09 01:56:35;;;;;;;;;0.50;0.00;;;;;6.83;96.69;99584.66;5077972;28;45561;-78
2022/01/09 01:59:02;;;;;;;;;1.00;0.00;;;;;6.84;96.63;99592.38;5079708;28;46557;-78
2022/01/09 02:04:49;;;;;;;;;0.00;0.00;;;;;6.81;96.63;99595.19;5082196;28;45574;-77
2022/01/09 02:07:15;;;;;;;;;0.00;0.00;;;;;6.83;96.48;99611.53;5079374;28;46726;-79
2022/01/09 02:09:40;;;;;;;;;0.00;0.00;;;;;6.75;96.69;99625.09;5077408;28;45687;-80
2022/01/09 02:12:06;;;;;;;;;0.00;0.00;;;;;6.78;96.69;99603.22;5076870;28;45619;-79
2022/01/09 02:14:38;;;;;;;;;0.00;0.00;;;;;6.80;96.71;99618.75;5076938;28;45668;-78
2022/01/09 02:17:04;;;;;;;;;1.00;0.25;;;;;6.66;96.62;99610.13;5078891;28;46608;-76
2022/01/09 02:19:30;;;;;;;;;1.25;0.00;;;;;6.74;96.91;99640.84;5085491;28;45514;-79
2022/01/09 02:21:56;;;;;;;;;1.00;0.00;;;;;6.71;96.66;99638.44;5086847;28;45568;-78
2022/01/09 02:24:23;;;;;;;;;0.00;0.00;;;;;6.73;96.77;99646.97;5090312;28;45694;-77
2022/01/09 02:26:50;;;;;;;;;0.25;0.00;;;;;6.68;96.90;99647.31;5089024;28;45812;-76
2022/01/09 02:29:16;;;;;;;;;0.00;0.00;;;;;6.58;96.82;99642.84;5087221;28;45582;-80
2022/01/09 02:35:04;;;;;;;;;1.00;0.00;;;;;6.65;97.30;99637.09;5086812;28;45718;-77
2022/01/09 02:37:29;;;;;;;;;0.00;0.00;;;;;6.60;96.51;99626.19;5069604;28;45559;-79
2022/01/09 02:39:55;;;;;;;;;0.00;0.00;;;;;6.48;96.75;99614.03;5089520;28;46285;-76
2022/01/09 02:42:26;;;;;;;;;0.00;0.00;;;;;6.70;96.70;99642.81;5070806;28;45862;-81
2022/01/09 02:44:52;;;;;;;;;0.00;0.00;;;;;6.57;96.66;99643.78;5083224;28;45413;-79
2022/01/09 02:47:19;;;;;;;;;0.25;0.00;;;;;6.74;96.56;99652.06;5075744;28;48389;-77
2022/01/09 02:49:49;;;;;;;;;0.25;0.00;;;;;6.72;96.74;99664.34;5085874;28;46237;-77
2022/01/09 02:52:48;;;;;;;;;0.00;0.00;;;;;6.69;96.80;99671.56;5077792;28;45423;-77
2022/01/09 02:57:32;;;;;;;;;0.00;0.00;;;;;6.43;96.54;99638.69;5073863;28;46284;-76
2022/01/09 02:59:57;;;;;;;;;2.00;0.00;;;;;6.59;96.77;99667.91;5074560;28;46089;-79
2022/01/09 03:02:23;;;;;;;;;1.00;0.00;;;;;6.58;96.64;99674.09;5038335;28;45619;-77
2022/01/09 03:04:48;;;;;;;;;1.50;0.00;;;;;6.54;96.61;99683.00;5073707;28;45601;-77
2022/01/09 03:07:13;;;;;;;;;0.75;0.00;;;;;6.51;96.50;99673.66;5073468;28;45599;-77
2022/01/09 03:09:39;;;;;;;;;0.00;0.00;;;;;6.47;96.59;99671.38;5073919;28;45708;-76
2022/01/09 03:12:05;;;;;;;;;1.00;0.00;;;;;6.45;96.77;99663.69;5072195;28;45448;-76
2022/01/09 03:14:30;;;;;;;;;0.00;0.00;;;;;6.53;96.80;99682.19;5074253;28;45735;-77
2022/01/09 03:20:20;;;;;;;;;0.00;0.00;;;;;6.54;96.85;99691.66;5074115;28;46179;-76
2022/01/09 03:22:47;;;;;;;;;0.00;0.00;;;;;6.49;96.72;99682.50;5073845;28;45672;-78
2022/01/09 03:25:13;;;;;;;;;0.00;0.00;;;;;6.55;96.87;99697.69;5074146;28;45566;-79
2022/01/09 03:27:40;;;;;;;;;1.25;0.25;;;;;6.52;96.55;99682.31;5075437;28;45514;-78
2022/01/09 03:30:09;;;;;;;;;0.25;0.00;;;;;6.58;96.50;99690.53;5077186;28;46067;-76
2022/01/09 03:35:56;;;;;;;;;0.00;0.00;;;;;6.40;96.66;99672.75;5076692;28;45766;-78
2022/01/09 03:38:21;;;;;;;;;1.00;0.00;;;;;6.60;96.39;99743.28;5077675;28;46267;-76
2022/01/09 03:40:47;;;;;;;;;1.00;0.00;;;;;6.65;96.56;99738.59;5078218;28;45667;-77
2022/01/09 03:43:12;;;;;;;;;1.50;0.00;;;;;6.63;96.46;99721.44;5077842;28;46022;-77
2022/01/09 03:45:38;;;;;;;;;0.00;0.00;;;;;6.57;96.75;99733.09;5077647;28;45595;-81
2022/01/09 03:48:03;;;;;;;;;1.25;0.00;;;;;6.58;96.65;99731.31;5077232;28;46728;-78
2022/01/09 03:50:29;;;;;;;;;1.00;0.00;;;;;6.64;96.76;99742.13;5076810;28;45596;-80
2022/01/09 03:52:54;;;;;;;;;0.00;0.00;;;;;6.62;97.00;99736.22;5076751;28;45557;-79
2022/01/09 03:55:22;;;;;;;;;1.50;0.00;;;;;6.60;96.70;99737.25;5077320;28;45514;-78
2022/01/09 03:57:48;;;;;;;;;1.50;0.50;;;;;6.40;96.86;99706.56;5077077;28;46840;-77
2022/01/09 04:00:19;;;;;;;;;1.00;0.00;;;;;6.40;96.77;99725.59;5077378;28;46169;-78
2022/01/09 04:06:06;;;;;;;;;1.00;1.00;;;;;6.52;97.07;99744.75;5077088;28;45679;-78
2022/01/09 04:08:33;;;;;;;;;0.75;0.00;;;;;6.50;97.21;99744.00;5076967;28;46385;-76
2022/01/09 04:11:00;;;;;;;;;0.50;0.00;;;;;6.52;96.95;99729.13;5077922;28;45643;-79
2022/01/09 04:13:26;;;;;;;;;0.00;0.00;;;;;6.52;96.97;99729.97;5078153;28;45653;-78
2022/01/09 04:15:51;;;;;;;;;0.75;0.00;;;;;6.47;96.72;99713.00;5078309;28;45529;-78
2022/01/09 04:18:20;;;;;;;;;2.00;0.00;;;;;6.52;96.87;99722.16;5077472;28;45505;-78
2022/01/09 04:20:47;;;;;;;;;1.00;0.00;;;;;6.53;96.77;99717.81;5075997;28;47476;-77
2022/01/09 04:23:13;;;;;;;;;0.00;0.00;;;;;6.54;97.02;99730.69;5076734;28;45807;-79
2022/01/09 04:25:40;;;;;;;;;0.25;0.25;;;;;6.52;96.94;99734.34;5076407;28;45655;-80
2022/01/09 04:28:05;;;;;;;;;0.00;0.00;;;;;6.47;96.83;99734.66;5076633;28;45845;-78
2022/01/09 04:30:31;;;;;;;;;1.00;0.00;;;;;6.48;96.58;99741.50;5076764;28;46088;-79
2022/01/09 04:36:18;;;;;;;;;1.25;0.00;;;;;6.50;96.78;99754.41;5076300;28;45654;-79
2022/01/09 04:38:43;;;;;;;;;0.25;0.25;;;;;6.42;96.45;99746.31;5075280;28;45643;-79
2022/01/09 04:41:09;;;;;;;;;1.75;0.00;;;;;6.43;96.48;99733.19;5076212;28;45704;-76
2022/01/09 04:43:34;;;;;;;;;0.00;0.00;;;;;6.49;96.68;99748.38;5076128;28;45791;-79
2022/01/09 04:45:59;;;;;;;;;0.00;0.00;;;;;6.40;96.57;99728.19;5076118;28;45522;-78
2022/01/09 04:51:47;;;;;;;;;2.00;0.00;;;;;6.48;96.98;99754.50;5075638;28;46207;-78
2022/01/09 04:54:12;;;;;;;;;0.00;0.00;;;;;6.49;97.03;99750.16;5075814;28;45717;-79
2022/01/09 04:56:37;;;;;;;;;0.00;0.00;;;;;6.49;97.06;99758.78;5076098;28;45696;-79
2022/01/09 04:59:03;;;;;;;;;0.00;0.00;;;;;6.51;96.78;99753.47;5074838;28;48444;-80
2022/01/09 05:01:29;;;;;;;;;1.00;0.00;;;;;6.43;96.92;99745.34;5075197;28;45915;-78
2022/01/09 05:03:54;;;;;;;;;0.00;0.00;;;;;6.52;96.95;99753.41;5077149;28;45584;-77
2022/01/09 05:06:20;;;;;;;;;0.00;0.00;;;;;6.43;96.81;99743.59;5077877;28;45525;-79
2022/01/09 05:08:45;;;;;;;;;0.25;0.00;;;;;6.52;96.80;99749.94;5077856;28;46479;-75
2022/01/09 05:11:11;;;;;;;;;4.00;1.25;;;;;6.34;96.84;99754.63;5076808;28;45956;-76
2022/01/09 05:13:37;;;;;;;;;0.00;0.00;;;;;6.48;96.83;99767.53;5075814;28;45853;-79
2022/01/09 05:16:02;;;;;;;;;0.00;0.00;;;;;6.39;96.71;99762.94;5076036;28;45723;-77
2022/01/09 05:21:51;;;;;;;;;1.00;0.50;;;;;6.33;97.21;99748.59;5078861;28;45845;-78
2022/01/09 05:24:16;;;;;;;;;0.00;0.00;;;;;6.28;96.93;99747.22;5078251;28;45802;-79
2022/01/09 05:26:42;;;;;;;;;0.50;0.00;;;;;6.29;97.34;99741.09;5076510;28;45529;-81
2022/01/09 05:29:07;;;;;;;;;0.00;0.00;;;;;6.20;96.85;99718.31;5075588;28;45489;-82
2022/01/09 05:31:33;;;;;;;;;0.00;0.00;;;;;6.24;96.93;99737.97;5075725;28;45574;-81
2022/01/09 05:37:20;;;;;;;;;0.00;0.00;;;;;6.28;97.20;99731.63;5074912;28;45596;-76
2022/01/09 05:39:46;;;;;;;;;0.00;0.00;;;;;6.29;96.77;99722.91;5075112;28;46457;-76
2022/01/09 05:42:13;;;;;;;;;1.00;0.00;;;;;6.30;96.91;99716.75;5075028;28;45658;-77
2022/01/09 05:44:38;;;;;;;;;0.00;0.00;;;;;6.33;96.91;99732.97;5075249;28;45902;-79
2022/01/09 05:47:05;;;;;;;;;0.25;0.00;;;;;6.32;97.34;99727.88;5074909;28;45679;-81
2022/01/09 05:49:31;;;;;;;;;1.00;0.00;;;;;6.33;96.82;99727.78;5075197;28;45735;-80
2022/01/09 05:51:57;;;;;;;;;1.00;0.25;;;;;6.33;97.01;99730.38;5074792;28;46179;-77
2022/01/09 05:54:22;;;;;;;;;1.25;0.00;;;;;6.31;97.30;99729.66;5075168;28;45734;-82
2022/01/09 05:56:48;;;;;;;;;0.75;0.00;;;;;6.30;96.94;99727.16;5075141;28;45762;-77
2022/01/09 05:59:13;;;;;;;;;1.75;0.00;;;;;6.23;97.09;99713.72;5075285;28;45726;-77
2022/01/09 06:01:39;;;;;;;;;1.00;0.00;;;;;6.31;97.07;99739.25;5056683;28;45583;-76
2022/01/09 06:07:26;;;;;;;;;1.00;0.00;;;;;6.29;96.84;99735.91;5075055;28;45590;-80
2022/01/09 06:09:51;;;;;;;;;1.50;0.75;;;;;6.33;96.60;99746.00;5074748;28;46356;-79
2022/01/09 06:12:17;;;;;;;;;0.50;0.00;;;;;6.30;96.81;99747.97;5075409;28;45680;-82
2022/01/09 06:14:42;;;;;;;;;1.25;0.25;;;;;6.27;96.89;99748.16;5075538;28;45552;-78
2022/01/09 06:17:08;;;;;;;;;2.50;0.00;;;;;6.35;96.94;99764.09;5075594;28;45763;-79
2022/01/09 06:19:33;;;;;;;;;0.25;0.00;;;;;6.35;96.70;99763.25;5074710;28;45624;-78
2022/01/09 06:21:58;;;;;;;;;0.00;0.00;;;;;6.38;96.98;99774.28;5074699;28;46281;-79
2022/01/09 06:24:24;;;;;;;;;0.00;0.00;;;;;6.27;97.13;99755.97;5074452;28;45524;-78
2022/01/09 06:26:49;;;;;;;;;0.00;0.00;;;;;6.37;96.95;99770.00;5075477;28;45452;-79
2022/01/09 06:29:15;;;;;;;;;0.00;0.00;;;;;6.36;96.89;99770.13;5075297;28;46458;-79
2022/01/09 06:31:40;;;;;;;;;0.00;0.00;;;;;6.23;96.73;99767.50;5074650;28;45763;-78
2022/01/09 06:37:27;;;;;;;;;0.50;0.00;;;;;6.28;96.88;99765.44;5075759;28;45693;-78
2022/01/09 06:39:52;;;;;;;;;0.25;0.00;;;;;6.36;97.04;99778.78;5076557;28;45613;-78
2022/01/09 06:42:18;;;;;;;;;2.75;0.00;;;;;6.37;96.75;99780.41;5074453;28;46404;-81
2022/01/09 06:44:43;;;;;;;;;2.00;0.00;;;;;6.35;96.90;99803.13;5074298;28;45553;-77
2022/01/09 06:47:10;;;;;;;;;0.00;0.00;;;;;6.36;97.02;99799.59;5056228;28;45916;-78
2022/01/09 06:52:57;;;;;;;;;1.00;0.00;;;;;6.29;96.78;99785.31;5074637;28;45698;-79
2022/01/09 06:55:22;;;;;;;;;2.00;0.00;;;;;6.28;96.98;99778.44;5074415;28;45573;-77
2022/01/09 06:57:48;;;;;;;;;0.00;0.00;;;;;6.20;97.02;99767.72;5074220;28;45874;-78
2022/01/09 07:00:17;;;;;;;;;0.50;0.00;;;;;6.15;97.36;99791.44;5073015;28;48397;-78
2022/01/09 07:02:43;;;;;;;;;0.50;0.00;;;;;6.14;97.39;99779.38;5076061;28;45612;-77
2022/01/09 07:05:10;;;;;;;;;0.00;0.00;;;;;6.05;97.55;99771.31;5076908;28;45652;-78
2022/01/09 07:07:36;;;;;;;;;0.00;0.00;;;;;6.01;97.44;99775.91;5077446;28;45650;-79
2022/01/09 07:10:02;;;;;;;;;0.00;0.00;;;;;6.11;97.42;99795.16;5076949;28;46628;-78
2022/01/09 07:12:27;;;;;;;;;0.00;0.00;;;;;6.10;97.45;99788.28;5077142;28;46468;-77
2022/01/09 07:14:52;;;;;;;;;0.00;0.00;;;;;6.10;97.68;99790.88;5077505;28;45687;-76
2022/01/09 07:17:18;;;;;;;;;0.00;0.00;;;;;6.11;97.36;99796.91;5059050;28;45933;-77
2022/01/09 07:23:32;;;;;;;;;0.00;0.00;;;;;6.14;97.17;99791.53;5077363;28;46082;-78
2022/01/09 07:25:58;;;;;;;;;0.00;0.00;;;;;6.07;97.50;99791.09;5076959;28;45688;-78
2022/01/09 07:28:23;;;;;;;;;0.00;0.00;;;;;6.07;97.06;99780.69;5077267;28;45771;-78
2022/01/09 07:30:49;;;;;;;;;1.00;0.00;;;;;6.16;97.45;99805.25;5077879;28;46870;-80
2022/01/09 07:33:14;;;;;;;;;0.00;0.00;;;;;6.18;97.52;99795.59;5078480;28;46220;-78
2022/01/09 07:35:42;;;;;;;;;0.00;0.00;;;;;6.19;97.36;99782.50;5078281;28;45972;-79
2022/01/09 07:38:08;;;;;;;;;0.00;0.00;;;;;6.15;97.20;99775.84;5077754;28;45650;-79
2022/01/09 07:40:34;;;;;;;;;0.00;0.00;;;;;6.24;97.33;99788.22;5077271;28;45686;-77
2022/01/09 07:43:00;;;;;;;;;0.00;0.00;;;;;6.23;97.35;99776.16;5077485;28;46254;-76
2022/01/09 07:45:27;;;;;;;;;1.00;0.00;;;;;6.30;96.96;99792.19;5077449;28;45828;-79
2022/01/09 07:47:54;;;;;;;;;1.00;0.00;;;;;6.25;96.98;99768.25;5077522;28;45581;-80
2022/01/09 07:50:22;;;;;;;;;1.50;0.75;;;;;6.28;97.01;99792.28;5077077;28;46943;-79
2022/01/09 07:52:48;;;;;;;;;0.00;0.00;;;;;6.42;97.33;99817.41;5076780;28;46513;-79
2022/01/09 07:55:14;;;;;;;;;0.75;0.00;;;;;6.44;97.14;99810.28;5077732;28;45709;-78
2022/01/09 07:57:40;;;;;;;;;1.00;0.00;;;;;6.38;97.00;99805.50;5077597;28;45448;-80
2022/01/09 08:00:08;;;;;;;;;0.00;0.00;;;;;6.42;97.29;99812.19;5073792;28;45684;-80
2022/01/09 08:02:33;;;;;;;;;2.00;0.00;;;;;6.39;97.35;99829.75;5077214;28;47501;-77
2022/01/09 08:04:59;;;;;;;;;2.75;0.00;;;;;6.35;97.21;99820.50;5077744;28;45666;-78
2022/01/09 08:07:24;;;;;;;;;0.25;0.00;;;;;6.30;97.05;99803.44;5080261;28;45580;-78
2022/01/09 08:09:50;;;;;;;;;0.00;0.00;;;;;6.27;97.21;99798.41;5079604;28;46237;-78
2022/01/09 08:12:15;;;;;;;;;0.00;0.00;;;;;6.24;97.42;99790.81;5079127;28;46253;-78
2022/01/09 08:14:41;;;;;;;;;0.00;0.00;;;;;6.23;97.50;99783.13;5078961;28;45623;-80
2022/01/09 08:17:08;;;;;;;;;1.00;0.00;;;;;6.13;97.25;99769.91;5075881;28;45584;-80
2022/01/09 08:19:35;;;;;;;;;4.50;1.75;;;;;6.05;97.49;99771.31;5076763;28;47602;-78
2022/01/09 08:22:02;;;;;;;;;4.00;3.50;;;;;6.19;97.26;99792.06;5059245;28;46350;-82
2022/01/09 08:24:27;;;;;;;;;0.00;0.00;;;;;6.25;97.02;99817.66;5080182;28;45541;-79
2022/01/09 08:26:53;;;;;;;;;0.00;0.00;;;;;6.27;97.05;99811.41;5086468;28;45729;-77
2022/01/09 08:29:18;;;;;;;;;0.00;0.00;;;;;6.18;97.09;99793.00;5072986;28;47232;-80
2022/01/09 08:31:44;;;;;;;;;4.00;0.00;;;;;6.31;97.03;99799.06;5089655;28;45451;-77
2022/01/09 08:34:09;;;;;;;;;0.00;0.00;;;;;6.33;96.80;99794.56;5090706;28;45642;-80
2022/01/09 08:36:35;;;;;;;;;0.00;0.00;;;;;6.37;97.04;99813.44;5088374;28;45573;-78
2022/01/09 08:39:02;;;;;;;;;0.00;0.00;;;;;6.38;97.10;99807.25;5076052;28;46875;-78
2022/01/09 08:41:28;;;;;;;;;0.00;0.00;;;;;6.38;97.14;99807.25;5076601;28;46136;-80
2022/01/09 08:43:54;;;;;;;;;0.00;0.00;;;;;6.36;97.13;99777.94;5076773;28;45656;-80
2022/01/09 08:46:19;;;;;;;;;0.00;0.00;;;;;6.41;96.94;99781.06;5076596;28;45518;-79
2022/01/09 08:48:45;;;;;;;;;0.00;0.00;;;;;6.41;96.98;99784.50;5075729;28;46882;-77
2022/01/09 08:54:31;;;;;;;;;0.00;0.00;;;;;6.31;97.27;99801.66;5076032;28;45644;-80
2022/01/09 08:56:57;;;;;;;;;0.00;0.00;;;;;6.27;97.07;99795.81;5076279;28;45905;-79
2022/01/09 08:59:24;;;;;;;;;1.00;0.00;;;;;6.20;97.24;99773.78;5076311;28;46564;-80
2022/01/09 09:01:49;;;;;;;;;0.00;0.00;;;;;6.25;97.45;99791.66;5076804;28;46005;-81
2022/01/09 09:04:15;;;;;;;;;0.00;0.00;;;;;6.32;97.45;99787.69;5076373;28;45521;-79
2022/01/09 09:06:41;;;;;;;;;2.00;0.00;;;;;6.29;97.28;99786.16;5075853;28;45509;-78
2022/01/09 09:09:08;;;;;;;;;0.00;0.00;;;;;6.28;97.24;99792.28;5076055;28;45495;-77
2022/01/09 09:11:40;;;;;;;;;0.00;0.00;;;;;6.23;97.00;99777.91;5075817;28;46177;-78
2022/01/09 09:14:06;;;;;;;;;0.00;0.00;;;;;6.45;97.12;99803.34;5075125;28;45930;-79
2022/01/09 09:16:32;;;;;;;;;0.00;0.00;;;;;6.38;96.91;99815.91;5075637;28;45589;-79
2022/01/09 09:18:58;;;;;;;;;0.00;0.00;;;;;6.48;96.94;99816.16;5075036;28;45581;-79
2022/01/09 09:24:45;;;;;;;;;0.25;0.00;;;;;6.44;97.13;99812.06;5074597;28;45915;-78
2022/01/09 09:27:12;;;;;;;;;0.75;0.00;;;;;6.52;97.08;99838.41;5057032;28;45606;-80
2022/01/09 09:29:37;;;;;;;;;1.00;0.00;;;;;6.52;97.20;99822.81;5075271;28;45722;-78
2022/01/09 09:32:03;;;;;;;;;0.50;0.00;;;;;6.53;97.02;99821.88;5075833;28;46486;-79
2022/01/09 09:34:28;;;;;;;;;1.00;0.00;;;;;6.63;96.97;99836.78;5076555;28;45593;-79
2022/01/09 09:36:54;;;;;;;;;1.00;0.75;;;;;6.53;96.93;99811.47;5076619;28;45728;-79
2022/01/09 09:39:19;;;;;;;;;1.25;0.25;;;;;6.71;97.11;99831.88;5077894;28;46494;-78
2022/01/09 09:41:45;;;;;;;;;0.50;0.00;;;;;6.43;97.05;99772.19;5078636;28;45541;-80
2022/01/09 09:44:12;;;;;;;;;0.50;0.00;;;;;6.72;96.97;99810.13;5077347;28;45494;-80
2022/01/09 09:46:38;;;;;;;;;1.25;1.00;;;;;6.64;96.98;99788.97;5075966;28;45922;-80
2022/01/09 09:49:04;;;;;;;;;0.00;0.00;;;;;6.87;97.07;99823.84;5075085;28;47321;-81
2022/01/09 09:54:52;;;;;;;;;0.00;0.00;;;;;6.95;96.91;99845.00;5074579;28;45596;-80
2022/01/09 09:57:18;;;;;;;;;1.00;0.00;;;;;7.02;97.16;99843.63;5057101;28;45694;-82
2022/01/09 09:59:43;;;;;;;;;0.75;0.75;;;;;6.88;97.04;99822.91;5074692;28;46582;-80
2022/01/09 10:02:11;;;;;;;;;0.25;0.00;;;;;7.03;96.94;99847.91;5074164;28;46056;-79
2022/01/09 10:11:16;;;;;;;;;0.00;0.00;;;;;7.06;97.17;99865.09;5011777;28;46068;-78
2022/01/09 10:13:42;;;;;;;;;1.25;1.25;;;;;7.11;97.07;99849.97;5012151;28;46145;-78
2022/01/09 10:16:09;;;;;;;;;2.00;1.25;;;;;7.07;97.26;99825.09;5011629;28;45657;-80
2022/01/09 10:18:48;;;;;;;;;1.25;0.00;;;;;7.18;96.95;99851.19;5012224;28;45829;-79
2022/01/09 10:21:15;;;;;;;;;0.25;0.00;;;;;7.09;97.12;99818.00;5012347;28;45701;-79
2022/01/09 10:24:02;;;;;;;;;0.00;0.00;;;;;7.27;97.02;99854.97;5012162;28;45663;-78
2022/01/09 10:26:29;;;;;;;;;0.00;0.00;;;;;7.30;97.12;99850.34;5011233;28;45680;-77
2022/01/09 10:28:55;;;;;;;;;0.00;0.00;;;;;7.32;97.23;99860.69;5012021;28;45869;-78
2022/01/09 10:31:20;;;;;;;;;0.00;0.00;;;;;7.32;97.37;99856.31;4994835;28;45644;-77
2022/01/09 10:34:05;;;;;;;;;1.00;0.00;;;;;7.30;97.02;99865.16;5012373;28;46062;-78
2022/01/09 10:36:45;;;;;;;;;1.25;0.00;;;;;7.33;97.07;99884.03;5012314;28;45746;-77
2022/01/09 10:39:16;;;;;;;;;0.50;0.50;;;;;7.35;96.97;99870.88;5050603;28;45671;-79
2022/01/09 10:41:57;;;;;;;;;0.00;0.00;;;;;7.34;97.09;99874.44;5056519;28;46672;-78
2022/01/09 10:44:27;;;;;;;;;0.00;0.00;;;;;7.35;96.92;99863.91;5057175;28;46452;-78
2022/01/09 10:47:05;;;;;;;;;0.00;0.00;;;;;7.36;96.76;99860.34;5057278;28;45754;-77
2022/01/09 10:49:56;;;;;;;;;0.00;0.00;;;;;7.37;96.97;99862.03;5057459;28;45542;-78
2022/01/09 10:52:31;;;;;;;;;1.00;0.00;;;;;7.37;96.98;99869.84;5056991;28;45689;-77
2022/01/09 10:54:58;;;;;;;;;0.00;0.00;;;;;7.35;97.07;99869.09;5056820;28;45738;-76
2022/01/09 10:57:27;;;;;;;;;0.75;0.00;;;;;7.37;96.94;99871.63;5057224;28;45570;-77
2022/01/09 11:00:02;;;;;;;;;0.00;0.00;;;;;7.37;96.92;99876.81;5038877;28;45622;-76
2022/01/09 11:02:28;;;;;;;;;0.00;0.00;;;;;7.36;96.99;99886.41;5056850;28;46440;-78
2022/01/09 11:04:53;;;;;;;;;1.00;0.00;;;;;7.35;96.95;99889.94;5057072;28;46339;-77
2022/01/09 11:07:19;;;;;;;;;0.00;0.00;;;;;7.22;96.95;99862.25;5057236;28;45575;-76
2022/01/09 11:09:48;;;;;;;;;0.00;0.00;;;;;7.25;96.93;99890.69;5057056;28;45697;-78
2022/01/09 11:12:19;;;;;;;;;0.00;0.00;;;;;7.15;97.11;99893.09;5056644;28;46388;-76
2022/01/09 11:14:45;;;;;;;;;0.50;0.00;;;;;6.99;97.18;99897.69;5056102;28;47187;-78
2022/01/09 11:17:11;;;;;;;;;0.00;0.00;;;;;6.95;97.20;99891.88;5057155;28;45644;-79
2022/01/09 11:19:37;;;;;;;;;1.00;0.00;;;;;6.81;97.50;99870.28;5056546;28;45798;-75
2022/01/09 11:22:08;;;;;;;;;0.00;0.00;;;;;6.84;97.32;99888.31;5056444;28;46747;-79
2022/01/09 11:25:16;;;;;;;;;0.00;0.00;;;;;6.79;97.69;99887.78;5040802;28;46336;-78
2022/01/09 11:27:45;;;;;;;;;0.00;0.00;;;;;6.72;97.42;99888.19;5076994;28;45637;-77
2022/01/09 11:30:17;;;;;;;;;0.00;0.00;;;;;6.63;97.81;99883.63;5077116;28;45799;-76
2022/01/09 11:33:04;;;;;;;;;0.00;0.00;;;;;6.63;97.54;99896.63;5076741;28;46558;-74
2022/01/09 11:38:54;;;;;;;;;0.00;0.00;;;;;6.57;97.57;99894.44;5076539;28;45639;-77
2022/01/09 11:41:25;;;;;;;;;0.00;0.00;;;;;6.52;97.65;99886.09;5077125;28;45435;-79
2022/01/09 11:43:53;;;;;;;;;0.00;0.00;;;;;6.46;97.59;99868.28;5076997;28;46463;-78
2022/01/09 11:46:19;;;;;;;;;0.00;0.00;;;;;6.50;97.66;99884.50;5077202;28;45694;-78
2022/01/09 11:49:11;;;;;;;;;1.75;1.00;;;;;6.46;97.60;99883.88;5080654;28;45765;-79
2022/01/09 11:55:00;;;;;;;;;0.00;0.00;;;;;6.47;97.66;99900.34;4974716;28;46120;-79
2022/01/09 11:57:43;;;;;;;;;1.00;1.00;;;;;6.50;97.51;99905.31;4974252;28;46255;-79
2022/01/09 12:00:40;;;;;;;;;0.50;0.25;;;;;6.39;97.57;99892.19;4974085;28;45594;-78
2022/01/09 12:03:27;;;;;;;;;1.25;1.00;;;;;6.53;97.21;99921.56;4974402;28;45770;-77
2022/01/09 12:12:36;;;;;;;;;5.00;2.00;;;;;6.52;97.43;99932.94;4973405;28;45975;-79
2022/01/09 12:15:04;;;;;;;;;1.00;1.00;;;;;6.54;97.36;99938.84;4973014;28;45703;-79
2022/01/09 12:17:40;;;;;;;;;1.75;1.75;;;;;6.54;97.34;99930.19;4973245;28;45921;-79
2022/01/09 12:20:14;;;;;;;;;1.25;1.00;;;;;6.54;97.41;99910.22;4973150;28;46146;-78
2022/01/09 12:22:46;;;;;;;;;1.00;1.00;;;;;6.55;97.32;99898.06;4972151;28;45888;-78
2022/01/09 12:25:26;;;;;;;;;2.00;1.75;;;;;6.53;97.42;99905.13;4973172;28;45692;-79
2022/01/09 12:28:10;;;;;;;;;1.00;1.00;;;;;6.51;97.51;99897.44;4998788;28;45742;-78
2022/01/09 12:30:38;;;;;;;;;1.75;1.75;;;;;6.52;97.50;99890.47;5073635;28;46118;-77
2022/01/09 12:33:09;;;;;;;;;1.75;1.00;;;;;6.55;97.37;99887.63;5074810;28;45863;-78
2022/01/09 12:35:37;;;;;;;;;1.00;1.00;;;;;6.48;97.85;99874.19;5074930;28;45680;-77
2022/01/09 12:38:03;;;;;;;;;0.00;0.00;;;;;6.55;97.16;99874.63;5074718;28;45691;-77
2022/01/09 12:40:32;;;;;;;;;0.25;0.25;;;;;6.58;97.15;99864.88;5074283;28;46144;-75
2022/01/09 12:42:59;;;;;;;;;0.25;0.00;;;;;6.59;97.05;99852.66;5074855;28;45530;-78
2022/01/09 12:45:33;;;;;;;;;0.00;0.00;;;;;6.67;97.19;99877.25;5075110;28;45726;-78
2022/01/09 12:48:01;;;;;;;;;0.00;0.00;;;;;6.65;97.08;99871.31;5074734;28;45569;-76
2022/01/09 12:50:38;;;;;;;;;2.00;1.00;;;;;6.67;97.19;99873.81;5073683;28;46597;-76
2022/01/09 12:53:18;;;;;;;;;1.50;0.50;;;;;6.74;97.15;99880.28;5074206;28;45720;-78
2022/01/09 12:56:02;;;;;;;;;0.00;0.00;;;;;6.66;97.00;99870.38;5075054;28;45588;-78
2022/01/09 12:58:34;;;;;;;;;0.00;0.00;;;;;6.70;97.19;99882.25;5074524;28;45569;-77
2022/01/09 13:01:22;;;;;;;;;0.50;0.00;;;;;6.72;97.23;99887.38;5073308;28;46105;-77
2022/01/09 13:03:51;;;;;;;;;0.00;0.00;;;;;6.73;97.01;99889.88;5074566;28;45833;-78
2022/01/09 13:06:24;;;;;;;;;2.00;1.00;;;;;6.75;97.23;99882.78;5075993;28;45847;-78
2022/01/09 13:08:53;;;;;;;;;8.50;7.00;;;;;6.74;97.02;99868.13;5075370;28;45791;-80
2022/01/09 13:11:26;;;;;;;;;5.25;4.50;;;;;6.76;96.86;99862.78;5074733;28;46905;-78
2022/01/09 13:13:55;;;;;;;;;2.00;2.00;;;;;6.74;96.94;99857.72;5076141;28;46013;-80